sensor_id;sensor_type;location;lat;lon;timestamp;P1;durP1;ratioP1;P2;durP2;ratioP2
66886;SDS011;53798;51.680;5.976;2022-11-15T00:01:47;25.38;;;14.15;;
66886;SDS011;53798;51.680;5.976;2022-11-15T00:04:32;25.23;;;15.57;;
66886;SDS011;53798;51.680;5.976;2022-11-15T00:07:18;33.55;;;15.55;;
66886;SDS011;53798;51.680;5.976;2022-11-15T00:10:26;23.58;;;15.30;;
66886;SDS011;53798;51.680;5.976;2022-11-15T00:13:12;30.20;;;15.02;;
66886;SDS011;53798;51.680;5.976;2022-11-15T00:15:58;28.05;;;15.45;;
66886;SDS011;53798;51.680;5.976;2022-11-15T00:18:46;27.92;;;14.98;;
66886;SDS011;53798;51.680;5.976;2022-11-15T00:21:35;30.83;;;16.17;;
66886;SDS011;53798;51.680;5.976;2022-11-15T00:24:20;29.77;;;15.95;;
66886;SDS011;53798;51.680;5.976;2022-11-15T00:27:07;26.88;;;15.88;;
66886;SDS011;53798;51.680;5.976;2022-11-15T00:29:53;28.48;;;15.32;;
66886;SDS011;53798;51.680;5.976;2022-11-15T00:32:40;23.73;;;14.65;;
66886;SDS011;53798;51.680;5.976;2022-11-15T00:35:26;26.92;;;15.32;;
66886;SDS011;53798;51.680;5.976;2022-11-15T00:38:12;26.52;;;15.20;;
66886;SDS011;53798;51.680;5.976;2022-11-15T00:40:57;26.20;;;15.18;;
66886;SDS011;53798;51.680;5.976;2022-11-15T00:43:44;35.05;;;17.13;;
66886;SDS011;53798;51.680;5.976;2022-11-15T00:46:30;31.30;;;16.00;;
66886;SDS011;53798;51.680;5.976;2022-11-15T00:49:16;26.90;;;15.55;;
66886;SDS011;53798;51.680;5.976;2022-11-15T00:52:01;28.38;;;15.95;;
66886;SDS011;53798;51.680;5.976;2022-11-15T00:54:47;24.92;;;15.45;;
66886;SDS011;53798;51.680;5.976;2022-11-15T00:57:33;26.42;;;15.82;;
66886;SDS011;53798;51.680;5.976;2022-11-15T01:00:18;24.80;;;14.82;;
66886;SDS011;53798;51.680;5.976;2022-11-15T01:03:04;25.75;;;15.27;;
66886;SDS011;53798;51.680;5.976;2022-11-15T01:05:49;26.08;;;15.60;;
66886;SDS011;53798;51.680;5.976;2022-11-15T01:08:35;22.90;;;13.75;;
66886;SDS011;53798;51.680;5.976;2022-11-15T01:11:21;23.05;;;13.77;;
66886;SDS011;53798;51.680;5.976;2022-11-15T01:14:06;22.42;;;12.98;;
66886;SDS011;53798;51.680;5.976;2022-11-15T01:16:54;38.35;;;17.73;;
66886;SDS011;53798;51.680;5.976;2022-11-15T01:19:40;27.48;;;15.85;;
66886;SDS011;53798;51.680;5.976;2022-11-15T01:22:26;25.98;;;15.10;;
66886;SDS011;53798;51.680;5.976;2022-11-15T01:25:12;22.85;;;13.43;;
66886;SDS011;53798;51.680;5.976;2022-11-15T01:27:57;25.10;;;14.18;;
66886;SDS011;53798;51.680;5.976;2022-11-15T01:30:43;24.65;;;15.55;;
66886;SDS011;53798;51.680;5.976;2022-11-15T01:33:29;21.35;;;13.25;;
66886;SDS011;53798;51.680;5.976;2022-11-15T01:36:17;26.17;;;14.82;;
66886;SDS011;53798;51.680;5.976;2022-11-15T01:39:09;23.85;;;14.48;;
66886;SDS011;53798;51.680;5.976;2022-11-15T01:41:55;23.13;;;14.63;;
66886;SDS011;53798;51.680;5.976;2022-11-15T01:44:45;26.85;;;15.18;;
66886;SDS011;53798;51.680;5.976;2022-11-15T01:47:44;22.35;;;13.90;;
66886;SDS011;53798;51.680;5.976;2022-11-15T01:50:35;30.83;;;16.52;;
66886;SDS011;53798;51.680;5.976;2022-11-15T01:53:21;27.95;;;16.00;;
66886;SDS011;53798;51.680;5.976;2022-11-15T01:56:11;25.02;;;15.13;;
66886;SDS011;53798;51.680;5.976;2022-11-15T01:59:03;29.20;;;17.52;;
66886;SDS011;53798;51.680;5.976;2022-11-15T02:01:53;28.83;;;15.63;;
66886;SDS011;53798;51.680;5.976;2022-11-15T02:04:41;29.00;;;17.67;;
66886;SDS011;53798;51.680;5.976;2022-11-15T02:07:32;29.85;;;17.15;;
66886;SDS011;53798;51.680;5.976;2022-11-15T02:10:21;27.20;;;16.63;;
66886;SDS011;53798;51.680;5.976;2022-11-15T02:13:09;29.08;;;16.52;;
66886;SDS011;53798;51.680;5.976;2022-11-15T02:18:59;23.77;;;14.65;;
66886;SDS011;53798;51.680;5.976;2022-11-15T02:38:47;20.42;;;13.63;;
66886;SDS011;53798;51.680;5.976;2022-11-15T02:41:47;21.10;;;13.63;;
66886;SDS011;53798;51.680;5.976;2022-11-15T02:44:43;20.35;;;13.23;;
66886;SDS011;53798;51.680;5.976;2022-11-15T02:47:32;24.95;;;13.63;;
66886;SDS011;53798;51.680;5.976;2022-11-15T02:50:27;19.92;;;13.48;;
66886;SDS011;53798;51.680;5.976;2022-11-15T02:53:20;20.40;;;13.23;;
66886;SDS011;53798;51.680;5.976;2022-11-15T02:56:10;24.77;;;13.93;;
66886;SDS011;53798;51.680;5.976;2022-11-15T02:59:04;22.48;;;13.63;;
66886;SDS011;53798;51.680;5.976;2022-11-15T03:05:29;21.75;;;13.27;;
66886;SDS011;53798;51.680;5.976;2022-11-15T03:08:52;21.80;;;13.55;;
66886;SDS011;53798;51.680;5.976;2022-11-15T03:11:50;19.23;;;12.73;;
66886;SDS011;53798;51.680;5.976;2022-11-15T03:15:12;21.45;;;12.98;;
66886;SDS011;53798;51.680;5.976;2022-11-15T03:18:10;23.23;;;13.60;;
66886;SDS011;53798;51.680;5.976;2022-11-15T03:21:15;23.08;;;13.43;;
66886;SDS011;53798;51.680;5.976;2022-11-15T03:24:05;21.02;;;13.68;;
66886;SDS011;53798;51.680;5.976;2022-11-15T03:26:53;24.05;;;13.45;;
66886;SDS011;53798;51.680;5.976;2022-11-15T03:29:45;19.70;;;12.60;;
66886;SDS011;53798;51.680;5.976;2022-11-15T03:32:40;20.00;;;12.95;;
66886;SDS011;53798;51.680;5.976;2022-11-15T03:35:45;19.40;;;13.15;;
66886;SDS011;53798;51.680;5.976;2022-11-15T03:38:33;21.33;;;13.10;;
66886;SDS011;53798;51.680;5.976;2022-11-15T03:42:04;22.40;;;12.73;;
66886;SDS011;53798;51.680;5.976;2022-11-15T03:45:13;21.08;;;13.45;;
66886;SDS011;53798;51.680;5.976;2022-11-15T03:48:07;18.20;;;12.52;;
66886;SDS011;53798;51.680;5.976;2022-11-15T03:51:01;19.42;;;12.13;;
66886;SDS011;53798;51.680;5.976;2022-11-15T03:53:49;20.15;;;12.43;;
66886;SDS011;53798;51.680;5.976;2022-11-15T03:56:38;18.33;;;12.55;;
66886;SDS011;53798;51.680;5.976;2022-11-15T03:59:24;21.00;;;12.90;;
66886;SDS011;53798;51.680;5.976;2022-11-15T04:02:11;20.48;;;12.57;;
66886;SDS011;53798;51.680;5.976;2022-11-15T04:04:58;20.40;;;12.82;;
66886;SDS011;53798;51.680;5.976;2022-11-15T04:07:44;26.73;;;13.45;;
66886;SDS011;53798;51.680;5.976;2022-11-15T04:10:30;22.23;;;12.68;;
66886;SDS011;53798;51.680;5.976;2022-11-15T04:13:16;23.15;;;13.18;;
66886;SDS011;53798;51.680;5.976;2022-11-15T04:16:03;21.60;;;13.35;;
66886;SDS011;53798;51.680;5.976;2022-11-15T04:18:49;22.05;;;14.00;;
66886;SDS011;53798;51.680;5.976;2022-11-15T04:21:55;22.17;;;13.43;;
66886;SDS011;53798;51.680;5.976;2022-11-15T04:24:59;22.95;;;13.77;;
66886;SDS011;53798;51.680;5.976;2022-11-15T04:27:45;21.00;;;13.20;;
66886;SDS011;53798;51.680;5.976;2022-11-15T04:30:30;20.92;;;13.38;;
66886;SDS011;53798;51.680;5.976;2022-11-15T04:33:16;21.67;;;13.27;;
66886;SDS011;53798;51.680;5.976;2022-11-15T04:36:02;20.77;;;11.88;;
66886;SDS011;53798;51.680;5.976;2022-11-15T04:39:07;23.10;;;13.30;;
66886;SDS011;53798;51.680;5.976;2022-11-15T04:41:53;21.60;;;13.02;;
66886;SDS011;53798;51.680;5.976;2022-11-15T04:44:40;19.90;;;12.48;;
66886;SDS011;53798;51.680;5.976;2022-11-15T04:47:25;19.95;;;12.48;;
66886;SDS011;53798;51.680;5.976;2022-11-15T04:50:13;16.55;;;12.23;;
66886;SDS011;53798;51.680;5.976;2022-11-15T04:53:00;22.42;;;12.70;;
66886;SDS011;53798;51.680;5.976;2022-11-15T04:55:46;19.75;;;12.43;;
66886;SDS011;53798;51.680;5.976;2022-11-15T04:58:32;19.48;;;12.63;;
66886;SDS011;53798;51.680;5.976;2022-11-15T05:01:17;20.67;;;11.65;;
66886;SDS011;53798;51.680;5.976;2022-11-15T05:04:03;18.25;;;12.00;;
66886;SDS011;53798;51.680;5.976;2022-11-15T05:07:04;19.52;;;11.77;;
66886;SDS011;53798;51.680;5.976;2022-11-15T05:09:49;19.33;;;11.70;;
66886;SDS011;53798;51.680;5.976;2022-11-15T05:12:35;20.52;;;12.10;;
66886;SDS011;53798;51.680;5.976;2022-11-15T05:15:23;19.80;;;12.20;;
66886;SDS011;53798;51.680;5.976;2022-11-15T05:18:08;26.45;;;11.73;;
66886;SDS011;53798;51.680;5.976;2022-11-15T05:20:54;18.35;;;11.32;;
66886;SDS011;53798;51.680;5.976;2022-11-15T05:23:40;19.83;;;11.93;;
66886;SDS011;53798;51.680;5.976;2022-11-15T05:26:26;19.52;;;11.70;;
66886;SDS011;53798;51.680;5.976;2022-11-15T05:29:12;18.95;;;12.02;;
66886;SDS011;53798;51.680;5.976;2022-11-15T05:31:57;21.60;;;11.65;;
66886;SDS011;53798;51.680;5.976;2022-11-15T05:34:43;21.42;;;12.50;;
66886;SDS011;53798;51.680;5.976;2022-11-15T05:37:30;20.08;;;12.68;;
66886;SDS011;53798;51.680;5.976;2022-11-15T05:40:18;20.63;;;13.15;;
66886;SDS011;53798;51.680;5.976;2022-11-15T05:43:04;21.15;;;13.85;;
66886;SDS011;53798;51.680;5.976;2022-11-15T05:45:51;18.85;;;12.52;;
66886;SDS011;53798;51.680;5.976;2022-11-15T05:48:36;23.45;;;13.45;;
66886;SDS011;53798;51.680;5.976;2022-11-15T05:51:27;24.30;;;13.30;;
66886;SDS011;53798;51.680;5.976;2022-11-15T05:54:15;21.77;;;13.35;;
66886;SDS011;53798;51.680;5.976;2022-11-15T05:57:04;21.30;;;12.10;;
66886;SDS011;53798;51.680;5.976;2022-11-15T05:59:50;21.40;;;14.15;;
66886;SDS011;53798;51.680;5.976;2022-11-15T06:02:36;17.00;;;11.65;;
66886;SDS011;53798;51.680;5.976;2022-11-15T06:05:22;15.98;;;11.20;;
66886;SDS011;53798;51.680;5.976;2022-11-15T06:08:08;19.77;;;12.25;;
66886;SDS011;53798;51.680;5.976;2022-11-15T06:10:54;20.13;;;13.15;;
66886;SDS011;53798;51.680;5.976;2022-11-15T06:13:39;21.83;;;12.65;;
66886;SDS011;53798;51.680;5.976;2022-11-15T06:16:25;22.92;;;13.80;;
66886;SDS011;53798;51.680;5.976;2022-11-15T06:19:12;20.67;;;13.27;;
66886;SDS011;53798;51.680;5.976;2022-11-15T06:21:59;20.08;;;12.90;;
66886;SDS011;53798;51.680;5.976;2022-11-15T06:24:45;24.17;;;13.88;;
66886;SDS011;53798;51.680;5.976;2022-11-15T06:27:32;18.02;;;12.25;;
66886;SDS011;53798;51.680;5.976;2022-11-15T06:30:17;26.35;;;15.27;;
66886;SDS011;53798;51.680;5.976;2022-11-15T06:33:04;21.95;;;13.00;;
66886;SDS011;53798;51.680;5.976;2022-11-15T06:35:51;19.38;;;13.32;;
66886;SDS011;53798;51.680;5.976;2022-11-15T06:38:37;25.35;;;15.88;;
66886;SDS011;53798;51.680;5.976;2022-11-15T06:41:22;35.15;;;20.17;;
66886;SDS011;53798;51.680;5.976;2022-11-15T06:44:08;29.35;;;18.38;;
66886;SDS011;53798;51.680;5.976;2022-11-15T06:46:55;31.73;;;19.48;;
66886;SDS011;53798;51.680;5.976;2022-11-15T06:49:40;47.50;;;26.65;;
66886;SDS011;53798;51.680;5.976;2022-11-15T06:55:37;21.65;;;14.98;;
66886;SDS011;53798;51.680;5.976;2022-11-15T06:58:23;21.15;;;13.32;;
66886;SDS011;53798;51.680;5.976;2022-11-15T07:01:09;25.98;;;14.00;;
66886;SDS011;53798;51.680;5.976;2022-11-15T07:03:57;31.40;;;18.48;;
66886;SDS011;53798;51.680;5.976;2022-11-15T07:06:45;30.67;;;18.02;;
66886;SDS011;53798;51.680;5.976;2022-11-15T07:09:32;38.42;;;21.65;;
66886;SDS011;53798;51.680;5.976;2022-11-15T07:12:18;42.47;;;24.92;;
66886;SDS011;53798;51.680;5.976;2022-11-15T07:15:04;62.58;;;31.33;;
66886;SDS011;53798;51.680;5.976;2022-11-15T07:17:51;47.75;;;25.67;;
66886;SDS011;53798;51.680;5.976;2022-11-15T07:20:37;30.27;;;17.92;;
66886;SDS011;53798;51.680;5.976;2022-11-15T07:23:23;29.95;;;18.35;;
66886;SDS011;53798;51.680;5.976;2022-11-15T07:26:09;27.23;;;17.20;;
66886;SDS011;53798;51.680;5.976;2022-11-15T07:28:54;20.70;;;13.63;;
66886;SDS011;53798;51.680;5.976;2022-11-15T07:31:40;21.83;;;13.02;;
66886;SDS011;53798;51.680;5.976;2022-11-15T07:34:31;16.58;;;11.50;;
66886;SDS011;53798;51.680;5.976;2022-11-15T07:37:17;21.10;;;12.57;;
66886;SDS011;53798;51.680;5.976;2022-11-15T07:40:05;36.22;;;20.98;;
66886;SDS011;53798;51.680;5.976;2022-11-15T07:42:51;21.23;;;11.55;;
66886;SDS011;53798;51.680;5.976;2022-11-15T07:45:41;22.75;;;12.95;;
66886;SDS011;53798;51.680;5.976;2022-11-15T07:48:29;13.80;;;9.43;;
66886;SDS011;53798;51.680;5.976;2022-11-15T07:51:28;9.60;;;7.28;;
66886;SDS011;53798;51.680;5.976;2022-11-15T07:54:13;11.45;;;7.32;;
66886;SDS011;53798;51.680;5.976;2022-11-15T07:56:59;17.00;;;10.10;;
66886;SDS011;53798;51.680;5.976;2022-11-15T07:59:51;17.77;;;12.65;;
66886;SDS011;53798;51.680;5.976;2022-11-15T08:02:38;14.55;;;9.90;;
66886;SDS011;53798;51.680;5.976;2022-11-15T08:05:23;16.15;;;8.95;;
66886;SDS011;53798;51.680;5.976;2022-11-15T08:08:09;13.48;;;8.30;;
66886;SDS011;53798;51.680;5.976;2022-11-15T08:10:59;15.95;;;11.95;;
66886;SDS011;53798;51.680;5.976;2022-11-15T08:13:46;13.88;;;9.70;;
66886;SDS011;53798;51.680;5.976;2022-11-15T08:16:32;15.68;;;9.48;;
66886;SDS011;53798;51.680;5.976;2022-11-15T08:19:18;13.70;;;9.68;;
66886;SDS011;53798;51.680;5.976;2022-11-15T08:22:03;15.25;;;9.70;;
66886;SDS011;53798;51.680;5.976;2022-11-15T08:24:49;14.55;;;9.93;;
66886;SDS011;53798;51.680;5.976;2022-11-15T08:27:35;15.75;;;8.48;;
66886;SDS011;53798;51.680;5.976;2022-11-15T08:30:21;13.45;;;9.13;;
66886;SDS011;53798;51.680;5.976;2022-11-15T08:33:09;13.85;;;9.23;;
66886;SDS011;53798;51.680;5.976;2022-11-15T08:35:58;12.88;;;9.68;;
66886;SDS011;53798;51.680;5.976;2022-11-15T08:38:45;15.25;;;8.70;;
66886;SDS011;53798;51.680;5.976;2022-11-15T08:41:31;13.23;;;7.68;;
66886;SDS011;53798;51.680;5.976;2022-11-15T08:44:22;10.63;;;7.35;;
66886;SDS011;53798;51.680;5.976;2022-11-15T08:47:10;11.30;;;6.88;;
66886;SDS011;53798;51.680;5.976;2022-11-15T08:49:57;11.68;;;6.75;;
66886;SDS011;53798;51.680;5.976;2022-11-15T08:52:44;17.13;;;7.15;;
66886;SDS011;53798;51.680;5.976;2022-11-15T08:55:29;13.60;;;6.70;;
66886;SDS011;53798;51.680;5.976;2022-11-15T08:58:15;11.20;;;7.35;;
66886;SDS011;53798;51.680;5.976;2022-11-15T09:01:01;10.50;;;7.07;;
66886;SDS011;53798;51.680;5.976;2022-11-15T09:03:48;10.93;;;6.80;;
66886;SDS011;53798;51.680;5.976;2022-11-15T09:06:34;10.45;;;6.90;;
66886;SDS011;53798;51.680;5.976;2022-11-15T09:09:26;14.80;;;6.75;;
66886;SDS011;53798;51.680;5.976;2022-11-15T09:12:12;11.85;;;6.68;;
66886;SDS011;53798;51.680;5.976;2022-11-15T09:15:01;9.23;;;6.30;;
66886;SDS011;53798;51.680;5.976;2022-11-15T09:17:48;10.20;;;7.18;;
66886;SDS011;53798;51.680;5.976;2022-11-15T09:20:34;9.23;;;7.07;;
66886;SDS011;53798;51.680;5.976;2022-11-15T09:23:20;11.45;;;6.95;;
66886;SDS011;53798;51.680;5.976;2022-11-15T09:26:06;9.88;;;6.80;;
66886;SDS011;53798;51.680;5.976;2022-11-15T09:28:52;9.27;;;5.65;;
66886;SDS011;53798;51.680;5.976;2022-11-15T09:31:38;8.93;;;5.70;;
66886;SDS011;53798;51.680;5.976;2022-11-15T09:34:23;8.20;;;5.60;;
66886;SDS011;53798;51.680;5.976;2022-11-15T09:37:11;7.47;;;5.28;;
66886;SDS011;53798;51.680;5.976;2022-11-15T09:39:58;8.00;;;4.70;;
66886;SDS011;53798;51.680;5.976;2022-11-15T09:49:03;7.13;;;3.45;;
66886;SDS011;53798;51.680;5.976;2022-11-15T09:51:53;5.72;;;3.70;;
66886;SDS011;53798;51.680;5.976;2022-11-15T09:54:34;5.68;;;3.80;;
66886;SDS011;53798;51.680;5.976;2022-11-15T10:00:17;5.38;;;3.72;;
66886;SDS011;53798;51.680;5.976;2022-11-15T10:03:13;7.97;;;3.63;;
66886;SDS011;53798;51.680;5.976;2022-11-15T10:05:48;3.90;;;3.25;;
66886;SDS011;53798;51.680;5.976;2022-11-15T10:08:33;4.50;;;3.08;;
66886;SDS011;53798;51.680;5.976;2022-11-15T10:11:23;4.75;;;2.97;;
66886;SDS011;53798;51.680;5.976;2022-11-15T10:22:50;7.43;;;2.05;;
66886;SDS011;53798;51.680;5.976;2022-11-15T10:28:09;2.38;;;1.40;;
66886;SDS011;53798;51.680;5.976;2022-11-15T10:30:51;5.00;;;1.58;;
66886;SDS011;53798;51.680;5.976;2022-11-15T10:33:36;4.63;;;1.60;;
66886;SDS011;53798;51.680;5.976;2022-11-15T10:41:17;3.05;;;1.35;;
66886;SDS011;53798;51.680;5.976;2022-11-15T10:44:07;6.10;;;1.73;;
66886;SDS011;53798;51.680;5.976;2022-11-15T10:46:41;2.65;;;1.65;;
66886;SDS011;53798;51.680;5.976;2022-11-15T10:49:17;4.03;;;2.15;;
66886;SDS011;53798;51.680;5.976;2022-11-15T10:51:59;3.45;;;1.50;;
66886;SDS011;53798;51.680;5.976;2022-11-15T10:54:44;2.35;;;1.05;;
66886;SDS011;53798;51.680;5.976;2022-11-15T10:57:21;4.10;;;2.22;;
66886;SDS011;53798;51.680;5.976;2022-11-15T10:59:54;2.53;;;1.70;;
66886;SDS011;53798;51.680;5.976;2022-11-15T11:05:03;5.88;;;1.60;;
66886;SDS011;53798;51.680;5.976;2022-11-15T11:10:36;1.70;;;0.60;;
66886;SDS011;53798;51.680;5.976;2022-11-15T11:13:25;3.42;;;1.40;;
66886;SDS011;53798;51.680;5.976;2022-11-15T11:15:59;3.00;;;1.40;;
66886;SDS011;53798;51.680;5.976;2022-11-15T11:27:36;7.07;;;1.25;;
66886;SDS011;53798;51.680;5.976;2022-11-15T11:30:45;2.80;;;1.20;;
66886;SDS011;53798;51.680;5.976;2022-11-15T11:33:21;4.10;;;1.60;;
66886;SDS011;53798;51.680;5.976;2022-11-15T11:38:44;5.57;;;1.30;;
66886;SDS011;53798;51.680;5.976;2022-11-15T11:47:04;5.05;;;1.30;;
66886;SDS011;53798;51.680;5.976;2022-11-15T11:49:39;6.05;;;1.45;;
66886;SDS011;53798;51.680;5.976;2022-11-15T12:01:52;2.92;;;0.80;;
66886;SDS011;53798;51.680;5.976;2022-11-15T12:04:11;2.00;;;0.75;;
66886;SDS011;53798;51.680;5.976;2022-11-15T12:07:14;3.53;;;0.70;;
66886;SDS011;53798;51.680;5.976;2022-11-15T12:12:35;3.03;;;0.70;;
66886;SDS011;53798;51.680;5.976;2022-11-15T12:15:31;4.10;;;0.90;;
66886;SDS011;53798;51.680;5.976;2022-11-15T12:18:07;1.58;;;0.80;;
66886;SDS011;53798;51.680;5.976;2022-11-15T12:20:41;4.75;;;1.10;;
66886;SDS011;53798;51.680;5.976;2022-11-15T12:23:48;3.45;;;0.88;;
66886;SDS011;53798;51.680;5.976;2022-11-15T12:26:30;2.95;;;0.70;;
66886;SDS011;53798;51.680;5.976;2022-11-15T12:29:15;4.15;;;1.10;;
66886;SDS011;53798;51.680;5.976;2022-11-15T12:31:52;7.40;;;1.10;;
66886;SDS011;53798;51.680;5.976;2022-11-15T12:36:54;3.00;;;0.77;;
66886;SDS011;53798;51.680;5.976;2022-11-15T12:40:02;5.47;;;0.90;;
66886;SDS011;53798;51.680;5.976;2022-11-15T12:45:31;1.67;;;0.70;;
66886;SDS011;53798;51.680;5.976;2022-11-15T12:50:53;3.58;;;1.00;;
66886;SDS011;53798;51.680;5.976;2022-11-15T13:06:51;6.03;;;0.90;;
66886;SDS011;53798;51.680;5.976;2022-11-15T13:14:57;6.03;;;1.10;;
66886;SDS011;53798;51.680;5.976;2022-11-15T13:17:45;4.05;;;0.70;;
66886;SDS011;53798;51.680;5.976;2022-11-15T13:28:46;6.20;;;1.15;;
66886;SDS011;53798;51.680;5.976;2022-11-15T13:31:34;2.03;;;0.70;;
66886;SDS011;53798;51.680;5.976;2022-11-15T13:34:26;6.00;;;1.52;;
66886;SDS011;53798;51.680;5.976;2022-11-15T13:39:48;6.93;;;2.45;;
66886;SDS011;53798;51.680;5.976;2022-11-15T13:42:17;2.95;;;0.70;;
66886;SDS011;53798;51.680;5.976;2022-11-15T13:44:57;7.35;;;1.67;;
66886;SDS011;53798;51.680;5.976;2022-11-15T13:47:29;2.00;;;0.60;;
66886;SDS011;53798;51.680;5.976;2022-11-15T13:49:58;5.00;;;0.75;;
66886;SDS011;53798;51.680;5.976;2022-11-15T13:52:38;4.30;;;1.50;;
66886;SDS011;53798;51.680;5.976;2022-11-15T13:55:13;2.83;;;0.63;;
66886;SDS011;53798;51.680;5.976;2022-11-15T13:57:49;3.38;;;0.50;;
66886;SDS011;53798;51.680;5.976;2022-11-15T14:00:37;2.00;;;0.60;;
66886;SDS011;53798;51.680;5.976;2022-11-15T14:03:18;6.57;;;5.47;;
66886;SDS011;53798;51.680;5.976;2022-11-15T14:06:01;2.42;;;0.85;;
66886;SDS011;53798;51.680;5.976;2022-11-15T14:08:42;2.25;;;0.70;;
66886;SDS011;53798;51.680;5.976;2022-11-15T14:11:52;2.05;;;0.50;;
66886;SDS011;53798;51.680;5.976;2022-11-15T14:14:22;1.80;;;0.60;;
66886;SDS011;53798;51.680;5.976;2022-11-15T14:25:05;2.03;;;1.55;;
66886;SDS011;53798;51.680;5.976;2022-11-15T14:27:40;3.03;;;0.93;;
66886;SDS011;53798;51.680;5.976;2022-11-15T14:30:13;1.73;;;0.60;;
66886;SDS011;53798;51.680;5.976;2022-11-15T14:35:20;2.80;;;0.60;;
66886;SDS011;53798;51.680;5.976;2022-11-15T14:37:49;3.47;;;0.70;;
66886;SDS011;53798;51.680;5.976;2022-11-15T14:40:18;4.15;;;0.90;;
66886;SDS011;53798;51.680;5.976;2022-11-15T14:42:50;4.20;;;0.73;;
66886;SDS011;53798;51.680;5.976;2022-11-15T14:45:20;2.35;;;0.70;;
66886;SDS011;53798;51.680;5.976;2022-11-15T14:47:48;1.80;;;0.60;;
66886;SDS011;53798;51.680;5.976;2022-11-15T14:50:17;2.38;;;0.60;;
66886;SDS011;53798;51.680;5.976;2022-11-15T14:52:47;3.88;;;1.00;;
66886;SDS011;53798;51.680;5.976;2022-11-15T14:55:23;20.08;;;12.38;;
66886;SDS011;53798;51.680;5.976;2022-11-15T14:58:03;4.28;;;0.82;;
66886;SDS011;53798;51.680;5.976;2022-11-15T15:00:38;2.60;;;1.20;;
66886;SDS011;53798;51.680;5.976;2022-11-15T15:03:08;2.75;;;0.90;;
66886;SDS011;53798;51.680;5.976;2022-11-15T15:05:37;5.55;;;0.77;;
66886;SDS011;53798;51.680;5.976;2022-11-15T15:08:09;3.20;;;0.90;;
66886;SDS011;53798;51.680;5.976;2022-11-15T15:10:41;3.95;;;0.98;;
66886;SDS011;53798;51.680;5.976;2022-11-15T15:13:18;3.20;;;1.00;;
66886;SDS011;53798;51.680;5.976;2022-11-15T15:15:51;3.40;;;1.00;;
66886;SDS011;53798;51.680;5.976;2022-11-15T15:18:19;1.88;;;0.85;;
66886;SDS011;53798;51.680;5.976;2022-11-15T15:20:56;3.05;;;0.60;;
66886;SDS011;53798;51.680;5.976;2022-11-15T15:23:33;7.32;;;1.08;;
66886;SDS011;53798;51.680;5.976;2022-11-15T15:26:02;8.13;;;1.17;;
66886;SDS011;53798;51.680;5.976;2022-11-15T15:28:29;2.35;;;0.70;;
66886;SDS011;53798;51.680;5.976;2022-11-15T15:31:00;2.00;;;0.80;;
66886;SDS011;53798;51.680;5.976;2022-11-15T15:33:28;91.07;;;71.53;;
66886;SDS011;53798;51.680;5.976;2022-11-15T15:35:56;11.30;;;6.93;;
66886;SDS011;53798;51.680;5.976;2022-11-15T15:38:23;8.27;;;2.53;;
66886;SDS011;53798;51.680;5.976;2022-11-15T15:40:50;9.70;;;5.88;;
66886;SDS011;53798;51.680;5.976;2022-11-15T15:43:17;8.38;;;2.28;;
66886;SDS011;53798;51.680;5.976;2022-11-15T15:45:45;6.40;;;1.30;;
66886;SDS011;53798;51.680;5.976;2022-11-15T15:48:12;3.13;;;0.95;;
66886;SDS011;53798;51.680;5.976;2022-11-15T15:50:42;3.08;;;1.20;;
66886;SDS011;53798;51.680;5.976;2022-11-15T15:53:10;9.48;;;1.65;;
66886;SDS011;53798;51.680;5.976;2022-11-15T15:55:39;2.88;;;1.15;;
66886;SDS011;53798;51.680;5.976;2022-11-15T15:58:07;4.22;;;0.93;;
66886;SDS011;53798;51.680;5.976;2022-11-15T16:00:35;2.63;;;0.82;;
66886;SDS011;53798;51.680;5.976;2022-11-15T16:03:05;2.00;;;1.00;;
66886;SDS011;53798;51.680;5.976;2022-11-15T16:05:32;3.25;;;1.23;;
66886;SDS011;53798;51.680;5.976;2022-11-15T16:07:59;4.75;;;1.48;;
66886;SDS011;53798;51.680;5.976;2022-11-15T16:10:27;7.82;;;1.40;;
66886;SDS011;53798;51.680;5.976;2022-11-15T16:13:03;5.57;;;1.85;;
66886;SDS011;53798;51.680;5.976;2022-11-15T16:15:30;5.35;;;2.03;;
66886;SDS011;53798;51.680;5.976;2022-11-15T16:18:00;7.22;;;4.00;;
66886;SDS011;53798;51.680;5.976;2022-11-15T16:20:38;5.20;;;1.38;;
66886;SDS011;53798;51.680;5.976;2022-11-15T16:23:17;3.22;;;1.15;;
66886;SDS011;53798;51.680;5.976;2022-11-15T16:25:47;8.70;;;1.40;;
66886;SDS011;53798;51.680;5.976;2022-11-15T16:28:23;3.50;;;1.30;;
66886;SDS011;53798;51.680;5.976;2022-11-15T16:31:04;3.38;;;1.33;;
66886;SDS011;53798;51.680;5.976;2022-11-15T16:33:36;2.80;;;1.27;;
66886;SDS011;53798;51.680;5.976;2022-11-15T16:36:04;5.32;;;1.65;;
66886;SDS011;53798;51.680;5.976;2022-11-15T16:38:41;5.10;;;1.60;;
66886;SDS011;53798;51.680;5.976;2022-11-15T16:41:08;2.83;;;1.55;;
66886;SDS011;53798;51.680;5.976;2022-11-15T16:43:35;5.07;;;1.48;;
66886;SDS011;53798;51.680;5.976;2022-11-15T16:46:21;2.85;;;1.40;;
66886;SDS011;53798;51.680;5.976;2022-11-15T16:48:51;4.32;;;1.63;;
66886;SDS011;53798;51.680;5.976;2022-11-15T16:51:20;7.38;;;1.88;;
66886;SDS011;53798;51.680;5.976;2022-11-15T16:53:48;3.60;;;1.90;;
66886;SDS011;53798;51.680;5.976;2022-11-15T16:56:34;4.30;;;2.15;;
66886;SDS011;53798;51.680;5.976;2022-11-15T16:59:01;5.82;;;2.30;;
66886;SDS011;53798;51.680;5.976;2022-11-15T17:01:35;6.10;;;2.10;;
66886;SDS011;53798;51.680;5.976;2022-11-15T17:04:12;5.72;;;2.90;;
66886;SDS011;53798;51.680;5.976;2022-11-15T17:06:39;18.15;;;7.88;;
66886;SDS011;53798;51.680;5.976;2022-11-15T17:09:13;43.33;;;16.08;;
66886;SDS011;53798;51.680;5.976;2022-11-15T17:11:46;113.72;;;55.25;;
66886;SDS011;53798;51.680;5.976;2022-11-15T17:14:13;7.82;;;4.93;;
66886;SDS011;53798;51.680;5.976;2022-11-15T17:16:40;4.47;;;2.80;;
66886;SDS011;53798;51.680;5.976;2022-11-15T17:19:13;5.35;;;3.13;;
66886;SDS011;53798;51.680;5.976;2022-11-15T17:21:43;4.10;;;2.88;;
66886;SDS011;53798;51.680;5.976;2022-11-15T17:24:12;4.85;;;3.38;;
66886;SDS011;53798;51.680;5.976;2022-11-15T17:26:40;6.13;;;2.60;;
66886;SDS011;53798;51.680;5.976;2022-11-15T17:29:08;6.05;;;4.20;;
66886;SDS011;53798;51.680;5.976;2022-11-15T17:31:35;5.43;;;3.20;;
66886;SDS011;53798;51.680;5.976;2022-11-15T17:34:04;6.38;;;3.40;;
66886;SDS011;53798;51.680;5.976;2022-11-15T17:36:32;6.00;;;3.10;;
66886;SDS011;53798;51.680;5.976;2022-11-15T17:39:00;5.55;;;2.80;;
66886;SDS011;53798;51.680;5.976;2022-11-15T17:41:28;5.70;;;3.38;;
66886;SDS011;53798;51.680;5.976;2022-11-15T17:43:56;5.30;;;3.30;;
66886;SDS011;53798;51.680;5.976;2022-11-15T17:46:25;5.53;;;3.42;;
66886;SDS011;53798;51.680;5.976;2022-11-15T17:48:54;3.92;;;3.05;;
66886;SDS011;53798;51.680;5.976;2022-11-15T17:51:22;6.10;;;3.15;;
66886;SDS011;53798;51.680;5.976;2022-11-15T17:53:50;6.03;;;3.22;;
66886;SDS011;53798;51.680;5.976;2022-11-15T17:56:21;4.95;;;3.40;;
66886;SDS011;53798;51.680;5.976;2022-11-15T18:01:27;5.88;;;3.35;;
66886;SDS011;53798;51.680;5.976;2022-11-15T18:03:57;8.25;;;4.20;;
66886;SDS011;53798;51.680;5.976;2022-11-15T18:06:29;6.07;;;3.50;;
66886;SDS011;53798;51.680;5.976;2022-11-15T18:09:00;6.65;;;4.07;;
66886;SDS011;53798;51.680;5.976;2022-11-15T18:11:31;6.25;;;3.80;;
66886;SDS011;53798;51.680;5.976;2022-11-15T18:14:06;7.00;;;4.22;;
66886;SDS011;53798;51.680;5.976;2022-11-15T18:16:38;9.80;;;4.95;;
66886;SDS011;53798;51.680;5.976;2022-11-15T18:19:06;12.25;;;5.97;;
66886;SDS011;53798;51.680;5.976;2022-11-15T18:21:39;8.63;;;4.53;;
66886;SDS011;53798;51.680;5.976;2022-11-15T18:24:22;13.63;;;7.25;;